Time;durP1;ratioP1;P1;durP2;ratioP2;P2;SDS_P1;SDS_P2;PMS_P1;PMS_P2;Temp;Humidity;BMP_temperature;BMP_pressure;BME280_temperature;BME280_humidity;BME280_pressure;Samples;Min_cycle;Max_cycle;Signal;HPM_P1;HPM_P2
2023/10/28 00:02:15;;;;;;;14.93;9.33;;;9.90;99.90;;;;;;5076118;28;20245;-82
2023/10/28 00:04:42;;;;;;;16.20;9.60;;;9.90;99.90;;;;;;5078082;28;20218;-81
2023/10/28 00:07:08;;;;;;;13.63;9.03;;;9.80;99.90;;;;;;5078835;28;20221;-81
2023/10/28 00:09:35;;;;;;;17.10;10.53;;;9.90;99.90;;;;;;5078217;28;20202;-81
2023/10/28 00:12:02;;;;;;;14.73;9.00;;;9.80;99.90;;;;;;5067253;28;20314;-82
2023/10/28 00:14:29;;;;;;;14.63;9.70;;;9.90;99.90;;;;;;5077260;28;20208;-81
2023/10/28 00:16:56;;;;;;;14.90;9.37;;;9.80;99.90;;;;;;5077691;28;20206;-82
2023/10/28 00:19:24;;;;;;;14.67;8.93;;;9.80;99.90;;;;;;5070305;28;20209;-81
2023/10/28 00:21:51;;;;;;;13.50;8.73;;;9.80;99.90;;;;;;5075363;28;20316;-82
2023/10/28 00:24:17;;;;;;;12.93;8.80;;;9.80;99.90;;;;;;5075348;28;20656;-82
2023/10/28 00:26:44;;;;;;;14.73;9.60;;;9.80;99.90;;;;;;5075843;28;20230;-82
2023/10/28 00:29:11;;;;;;;13.23;8.70;;;9.70;99.90;;;;;;5075723;28;20662;-82
2023/10/28 00:31:38;;;;;;;14.53;8.43;;;9.80;99.90;;;;;;5074490;28;20252;-82
2023/10/28 00:34:06;;;;;;;15.70;10.03;;;9.80;99.90;;;;;;5076083;28;20206;-82
2023/10/28 00:36:34;;;;;;;13.73;8.67;;;9.80;99.90;;;;;;5076535;28;20695;-82
2023/10/28 00:39:01;;;;;;;13.63;9.27;;;9.70;99.90;;;;;;5077288;28;20206;-82
2023/10/28 00:41:28;;;;;;;12.13;7.93;;;9.80;99.90;;;;;;5075717;28;20705;-82
2023/10/28 00:43:55;;;;;;;12.57;8.63;;;9.70;99.90;;;;;;5075232;28;20221;-82
2023/10/28 00:46:22;;;;;;;13.30;8.70;;;9.70;99.90;;;;;;5074287;28;20222;-82
2023/10/28 00:48:49;;;;;;;13.63;9.00;;;9.70;99.90;;;;;;5075141;28;20207;-82
2023/10/28 00:51:16;;;;;;;15.03;8.47;;;9.70;99.90;;;;;;5076197;28;20222;-82
2023/10/28 00:53:44;;;;;;;12.57;8.00;;;9.70;99.90;;;;;;5074991;28;20592;-82
2023/10/28 00:56:12;;;;;;;14.40;8.57;;;9.80;99.90;;;;;;5074584;28;20220;-82
2023/10/28 00:58:40;;;;;;;14.93;9.57;;;9.80;99.90;;;;;;5075030;28;20555;-82
2023/10/28 01:01:10;;;;;;;15.43;9.47;;;9.60;99.90;;;;;;5074218;28;20226;-81
2023/10/28 01:03:36;;;;;;;15.10;9.20;;;9.60;99.90;;;;;;5075155;28;20639;-81
2023/10/28 01:06:04;;;;;;;15.93;9.53;;;9.60;99.90;;;;;;5075411;28;20236;-82
2023/10/28 01:08:30;;;;;;;14.80;9.07;;;9.60;99.90;;;;;;5076531;28;20256;-82
2023/10/28 01:11:02;;;;;;;16.10;9.60;;;9.60;99.90;;;;;;5074884;28;20254;-82
2023/10/28 01:13:29;;;;;;;17.30;10.07;;;9.60;99.90;;;;;;5074962;28;20237;-82
2023/10/28 01:15:56;;;;;;;18.33;10.40;;;9.50;99.90;;;;;;5074772;28;20206;-82
2023/10/28 01:18:23;;;;;;;17.87;11.03;;;9.60;99.90;;;;;;5066015;28;20259;-82
2023/10/28 01:20:50;;;;;;;17.10;10.10;;;9.60;99.90;;;;;;5074513;28;20241;-82
2023/10/28 01:23:18;;;;;;;14.23;8.90;;;9.60;99.90;;;;;;5073971;28;20202;-82
2023/10/28 01:25:45;;;;;;;16.87;8.93;;;9.50;99.90;;;;;;5074717;28;20228;-82
2023/10/28 01:28:12;;;;;;;13.90;8.13;;;9.60;99.90;;;;;;5073847;28;20567;-82
2023/10/28 01:30:41;;;;;;;13.90;7.93;;;9.60;99.90;;;;;;5074367;28;20237;-82
2023/10/28 01:33:08;;;;;;;12.73;7.83;;;9.60;99.90;;;;;;5073302;28;20233;-82
2023/10/28 01:35:35;;;;;;;12.07;8.00;;;9.70;99.90;;;;;;5074199;28;20294;-81
2023/10/28 01:38:03;;;;;;;13.50;7.93;;;9.60;99.90;;;;;;5090709;28;20209;-82
2023/10/28 01:40:33;;;;;;;13.93;7.73;;;9.50;99.90;;;;;;5086462;28;20284;-81
2023/10/28 01:43:01;;;;;;;13.77;7.20;;;9.60;99.90;;;;;;5073049;28;20260;-81
2023/10/28 01:45:28;;;;;;;10.57;6.40;;;9.60;99.90;;;;;;5082190;28;20556;-81
2023/10/28 01:47:55;;;;;;;9.67;6.50;;;9.60;99.90;;;;;;5080896;28;20221;-81
2023/10/28 01:50:22;;;;;;;10.60;6.30;;;9.60;99.90;;;;;;5072487;28;20206;-81
2023/10/28 01:52:49;;;;;;;11.07;6.80;;;9.60;99.90;;;;;;5083656;28;20637;-81
2023/10/28 01:55:16;;;;;;;12.27;6.60;;;9.70;99.90;;;;;;5092690;28;20277;-81
2023/10/28 01:57:44;;;;;;;8.73;5.80;;;9.60;99.90;;;;;;5085309;28;20238;-81
2023/10/28 02:00:13;;;;;;;9.73;5.67;;;9.60;99.90;;;;;;5083141;28;20579;-81
2023/10/28 02:02:41;;;;;;;10.60;5.73;;;9.50;99.90;;;;;;5093449;28;20233;-82
2023/10/28 02:05:09;;;;;;;9.73;5.83;;;9.50;99.90;;;;;;5074781;28;20285;-81
2023/10/28 02:07:36;;;;;;;6.10;3.87;;;9.50;99.90;;;;;;5082857;28;20282;-82
2023/10/28 02:10:04;;;;;;;10.60;5.07;;;9.50;99.90;;;;;;5089741;28;20260;-81
2023/10/28 02:12:34;;;;;;;8.03;5.03;;;9.50;99.90;;;;;;5072667;28;20244;-81
2023/10/28 02:15:03;;;;;;;8.87;4.87;;;9.40;99.90;;;;;;5089192;28;20585;-82
2023/10/28 02:17:30;;;;;;;6.27;4.27;;;9.30;99.90;;;;;;5082802;28;20194;-82
2023/10/28 02:19:57;;;;;;;5.50;3.77;;;9.30;99.90;;;;;;5072936;28;20634;-81
2023/10/28 02:22:24;;;;;;;5.63;4.40;;;9.10;99.90;;;;;;5072334;28;20222;-82
2023/10/28 02:24:51;;;;;;;6.27;4.70;;;9.00;99.90;;;;;;5080657;28;20297;-81
2023/10/28 02:27:18;;;;;;;7.97;4.97;;;9.10;99.90;;;;;;5073322;28;20226;-81
2023/10/28 02:29:45;;;;;;;7.90;4.30;;;9.10;99.90;;;;;;5080265;28;20220;-81
2023/10/28 02:32:13;;;;;;;7.97;4.30;;;9.00;99.90;;;;;;5077956;28;20237;-81
2023/10/28 02:34:41;;;;;;;6.33;4.27;;;9.10;99.90;;;;;;5073792;28;20198;-81
2023/10/28 02:37:08;;;;;;;8.67;4.50;;;8.90;99.90;;;;;;5089348;28;20205;-81
2023/10/28 02:39:35;;;;;;;9.23;4.27;;;8.90;99.90;;;;;;5079653;28;20670;-81
2023/10/28 02:42:02;;;;;;;8.30;4.07;;;8.90;99.90;;;;;;5086328;28;20229;-80
2023/10/28 02:44:31;;;;;;;4.03;3.20;;;8.70;99.90;;;;;;5069394;28;20205;-81
2023/10/28 02:46:58;;;;;;;7.67;4.10;;;8.70;99.90;;;;;;5090464;28;20595;-81
2023/10/28 02:49:27;;;;;;;5.43;3.80;;;8.80;99.90;;;;;;5078771;28;20205;-81
2023/10/28 02:51:54;;;;;;;6.73;3.57;;;8.90;99.90;;;;;;5075869;28;20712;-82
2023/10/28 02:54:21;;;;;;;8.23;4.03;;;8.80;99.90;;;;;;5080113;28;20297;-82
2023/10/28 02:56:47;;;;;;;5.30;3.90;;;8.80;99.90;;;;;;5079852;28;20202;-82
2023/10/28 02:59:15;;;;;;;5.90;3.93;;;8.80;99.90;;;;;;5088471;28;20205;-81
2023/10/28 03:01:42;;;;;;;5.37;3.90;;;8.70;99.90;;;;;;5098098;28;20228;-81
2023/10/28 03:04:08;;;;;;;7.07;3.77;;;8.80;99.90;;;;;;5087375;28;20289;-81
2023/10/28 03:06:37;;;;;;;5.13;3.70;;;8.80;99.90;;;;;;5089449;28;20206;-81
2023/10/28 03:09:04;;;;;;;5.40;3.73;;;8.70;99.90;;;;;;5067749;28;20213;-81
2023/10/28 03:11:31;;;;;;;5.13;3.70;;;8.70;99.90;;;;;;5071712;28;20226;-81
2023/10/28 03:13:57;;;;;;;6.07;4.00;;;8.60;99.90;;;;;;5093968;28;20205;-81
2023/10/28 03:16:24;;;;;;;7.20;4.50;;;8.50;99.90;;;;;;5088143;28;20202;-81
2023/10/28 03:18:51;;;;;;;6.73;3.90;;;8.60;99.90;;;;;;5086651;28;20232;-80
2023/10/28 03:21:19;;;;;;;11.80;4.40;;;8.70;99.90;;;;;;5094454;28;20317;-81
2023/10/28 03:23:47;;;;;;;9.40;4.80;;;8.90;99.90;;;;;;5093786;28;20776;-80
2023/10/28 03:26:14;;;;;;;7.70;5.00;;;8.90;99.90;;;;;;5090113;28;20206;-81
2023/10/28 03:28:41;;;;;;;9.33;5.17;;;8.90;99.90;;;;;;5074918;28;20228;-81
2023/10/28 03:31:09;;;;;;;8.43;5.27;;;8.90;99.90;;;;;;5089532;28;20767;-81
2023/10/28 03:33:37;;;;;;;9.43;5.17;;;8.70;99.90;;;;;;5083223;28;20233;-81
2023/10/28 03:36:05;;;;;;;8.63;5.07;;;8.70;99.90;;;;;;5091600;28;20692;-81
2023/10/28 03:38:32;;;;;;;7.47;4.77;;;8.60;99.90;;;;;;5078709;28;20202;-82
2023/10/28 03:41:05;;;;;;;7.97;5.03;;;8.60;99.90;;;;;;5086605;28;20230;-82
2023/10/28 03:43:32;;;;;;;8.53;5.27;;;8.60;99.90;;;;;;5080937;28;20252;-81
2023/10/28 03:45:59;;;;;;;11.57;5.10;;;8.60;99.90;;;;;;5085747;28;20212;-81
2023/10/28 03:48:26;;;;;;;8.00;5.50;;;8.60;99.90;;;;;;5091090;28;20291;-81
2023/10/28 03:50:57;;;;;;;7.53;4.90;;;8.60;99.90;;;;;;5081915;28;20225;-81
2023/10/28 03:53:24;;;;;;;8.20;5.07;;;8.60;99.90;;;;;;5078831;28;20214;-81
2023/10/28 03:55:51;;;;;;;9.13;4.70;;;8.60;99.90;;;;;;5085370;28;20660;-81
2023/10/28 03:58:19;;;;;;;6.87;4.70;;;8.70;99.90;;;;;;5084838;28;20285;-81
2023/10/28 04:00:46;;;;;;;8.27;5.00;;;8.80;99.90;;;;;;5077649;28;20287;-81
2023/10/28 04:03:13;;;;;;;8.03;5.50;;;8.80;99.90;;;;;;5088166;28;20202;-81
2023/10/28 04:05:40;;;;;;;6.83;4.70;;;8.70;99.90;;;;;;5087041;28;20216;-81
2023/10/28 04:08:06;;;;;;;8.33;4.90;;;8.70;99.90;;;;;;5091378;28;20226;-81
2023/10/28 04:10:33;;;;;;;9.43;5.23;;;8.70;99.90;;;;;;5089323;28;20198;-81
2023/10/28 04:13:00;;;;;;;8.83;5.03;;;8.70;99.90;;;;;;5081585;28;20245;-81
2023/10/28 04:15:28;;;;;;;7.00;4.70;;;8.70;99.90;;;;;;5084457;28;20210;-81
2023/10/28 04:17:55;;;;;;;8.53;5.13;;;8.70;99.90;;;;;;5075849;28;20400;-81
2023/10/28 04:20:22;;;;;;;23.50;14.13;;;8.70;99.90;;;;;;5081720;28;20643;-81
2023/10/28 04:22:49;;;;;;;32.77;22.43;;;8.80;99.90;;;;;;5091731;28;20617;-81
2023/10/28 04:25:16;;;;;;;10.20;5.40;;;8.70;99.90;;;;;;5076298;28;20306;-81
2023/10/28 04:27:43;;;;;;;8.43;4.63;;;8.80;99.90;;;;;;5075492;28;20224;-81
2023/10/28 04:30:11;;;;;;;8.43;4.90;;;8.80;99.90;;;;;;5083447;28;20202;-81
2023/10/28 04:32:40;;;;;;;8.30;4.87;;;8.80;99.90;;;;;;5075261;28;20599;-81
2023/10/28 04:35:10;;;;;;;7.67;4.93;;;8.80;99.90;;;;;;5078859;28;20212;-82
2023/10/28 04:37:37;;;;;;;7.90;4.70;;;8.80;99.90;;;;;;5075678;28;20650;-81
2023/10/28 04:40:05;;;;;;;8.70;5.33;;;8.70;99.90;;;;;;5080689;28;20208;-82
2023/10/28 04:42:32;;;;;;;8.53;4.77;;;8.80;99.90;;;;;;5076011;28;20305;-81
2023/10/28 04:44:59;;;;;;;9.70;5.33;;;8.80;99.90;;;;;;5083657;28;20215;-81
2023/10/28 04:47:25;;;;;;;8.20;4.77;;;8.80;99.90;;;;;;5075140;28;20222;-81
2023/10/28 04:49:54;;;;;;;8.37;4.80;;;9.00;99.90;;;;;;5079638;28;20209;-81
2023/10/28 04:52:21;;;;;;;9.33;5.10;;;8.90;99.90;;;;;;5075735;28;20237;-81
2023/10/28 04:54:48;;;;;;;9.13;4.87;;;8.90;99.90;;;;;;5072409;28;20203;-82
2023/10/28 04:57:15;;;;;;;7.90;5.27;;;8.80;99.90;;;;;;5074768;28;20311;-81
2023/10/28 04:59:41;;;;;;;8.40;4.60;;;8.80;99.90;;;;;;5070283;28;20216;-80
2023/10/28 05:02:08;;;;;;;7.37;4.30;;;9.00;99.90;;;;;;5072930;28;20236;-82
2023/10/28 05:04:35;;;;;;;9.87;4.70;;;8.80;99.90;;;;;;5071314;28;20198;-81
2023/10/28 05:07:04;;;;;;;6.47;4.50;;;8.80;99.90;;;;;;5075332;28;20213;-80
2023/10/28 05:09:31;;;;;;;11.53;4.50;;;8.90;99.90;;;;;;5078195;28;20289;-81
2023/10/28 05:12:00;;;;;;;8.33;4.97;;;8.90;99.90;;;;;;5072821;28;20218;-81
2023/10/28 05:14:27;;;;;;;12.30;5.10;;;8.90;99.90;;;;;;5075538;28;20238;-81
2023/10/28 05:16:54;;;;;;;7.33;4.27;;;8.90;99.90;;;;;;5078972;28;20202;-81
2023/10/28 05:19:22;;;;;;;8.10;4.57;;;8.80;99.90;;;;;;5077167;28;20202;-81
2023/10/28 05:21:49;;;;;;;7.63;4.20;;;9.00;99.90;;;;;;5074818;28;20222;-81
2023/10/28 05:24:18;;;;;;;18.03;8.73;;;9.00;99.90;;;;;;5078499;28;20260;-81
2023/10/28 05:26:44;;;;;;;6.77;4.30;;;9.00;99.90;;;;;;5070894;28;20581;-80
2023/10/28 05:29:11;;;;;;;5.97;4.67;;;9.10;99.90;;;;;;5081009;28;20228;-81
2023/10/28 05:31:38;;;;;;;9.20;4.03;;;9.00;99.90;;;;;;5073201;28;20234;-80
2023/10/28 05:34:05;;;;;;;7.70;3.90;;;9.00;99.90;;;;;;5075208;28;20294;-80
2023/10/28 05:36:32;;;;;;;7.00;3.87;;;9.10;99.90;;;;;;5076322;28;20209;-80
2023/10/28 05:38:59;;;;;;;7.93;4.00;;;9.00;99.90;;;;;;5079797;28;20202;-81
2023/10/28 05:41:27;;;;;;;4.70;3.70;;;9.10;99.90;;;;;;5072737;28;20230;-80
2023/10/28 05:43:54;;;;;;;5.97;3.60;;;9.10;99.90;;;;;;5078260;28;20201;-81
2023/10/28 05:46:22;;;;;;;5.97;3.33;;;9.20;99.90;;;;;;5078956;28;20202;-80
2023/10/28 05:48:50;;;;;;;6.83;3.30;;;9.20;99.90;;;;;;5075846;28;20214;-81
2023/10/28 05:51:17;;;;;;;9.93;3.43;;;9.20;99.90;;;;;;5072745;28;20290;-81
2023/10/28 05:53:44;;;;;;;8.53;3.47;;;9.20;99.90;;;;;;5073701;28;20268;-81
2023/10/28 05:56:10;;;;;;;4.83;3.67;;;9.20;99.90;;;;;;5073988;28;20225;-80
2023/10/28 05:58:38;;;;;;;4.53;3.40;;;9.20;99.90;;;;;;5078049;28;20296;-80
2023/10/28 06:01:05;;;;;;;8.23;3.53;;;9.30;99.90;;;;;;5073339;28;20222;-82
2023/10/28 06:03:32;;;;;;;4.27;3.13;;;9.30;99.90;;;;;;5073199;28;20213;-82
2023/10/28 06:05:59;;;;;;;4.83;3.00;;;9.30;99.90;;;;;;5073926;28;20688;-82
2023/10/28 06:08:26;;;;;;;8.27;3.70;;;9.30;99.90;;;;;;5074494;28;20279;-82
2023/10/28 06:10:54;;;;;;;9.50;3.50;;;9.30;99.90;;;;;;5078217;28;20243;-81
2023/10/28 06:13:21;;;;;;;7.40;3.63;;;9.30;99.90;;;;;;5075658;28;20255;-82
2023/10/28 06:15:49;;;;;;;8.07;3.47;;;9.30;99.90;;;;;;5072574;28;20209;-82
2023/10/28 06:18:19;;;;;;;8.83;4.90;;;9.30;99.90;;;;;;5071383;28;20199;-80
2023/10/28 06:20:47;;;;;;;6.77;4.53;;;9.30;99.90;;;;;;5072429;28;20586;-82
2023/10/28 06:23:15;;;;;;;8.00;5.40;;;9.30;99.90;;;;;;5071563;28;20206;-81
2023/10/28 06:25:42;;;;;;;7.73;5.40;;;9.40;99.90;;;;;;5073851;28;20252;-81
2023/10/28 06:28:10;;;;;;;4.73;3.70;;;9.40;99.90;;;;;;5072906;28;20222;-81
2023/10/28 06:30:37;;;;;;;4.60;3.70;;;9.40;99.90;;;;;;5073177;28;20226;-81
2023/10/28 06:33:05;;;;;;;5.97;3.60;;;9.40;99.90;;;;;;5075998;28;20205;-81
2023/10/28 06:35:32;;;;;;;4.03;2.80;;;9.40;99.90;;;;;;5075801;28;20285;-81
2023/10/28 06:37:59;;;;;;;4.03;2.77;;;9.50;99.90;;;;;;5077176;28;20195;-82
2023/10/28 06:40:28;;;;;;;6.23;3.60;;;9.50;99.90;;;;;;5074907;28;20202;-82
2023/10/28 06:42:56;;;;;;;3.70;2.40;;;9.50;99.90;;;;;;5072927;28;20218;-82
2023/10/28 06:45:23;;;;;;;4.07;2.10;;;9.70;99.90;;;;;;5068971;28;20210;-82
2023/10/28 06:47:50;;;;;;;5.17;2.70;;;9.50;99.90;;;;;;5072449;28;20218;-81
2023/10/28 06:50:20;;;;;;;5.00;2.60;;;9.50;99.90;;;;;;5074672;28;20198;-82
2023/10/28 06:52:47;;;;;;;6.47;2.70;;;9.60;99.90;;;;;;5072703;28;20218;-82
2023/10/28 06:55:14;;;;;;;6.90;2.60;;;9.60;99.90;;;;;;5075043;28;20198;-82
2023/10/28 06:57:41;;;;;;;6.53;2.40;;;9.60;99.90;;;;;;5074493;28;20202;-82
2023/10/28 07:00:12;;;;;;;7.00;2.50;;;9.60;99.90;;;;;;5077148;28;20224;-83
2023/10/28 07:02:39;;;;;;;4.80;2.27;;;9.60;99.90;;;;;;5074088;28;20260;-82
2023/10/28 07:05:06;;;;;;;4.20;2.40;;;9.70;99.90;;;;;;5073058;28;20202;-82
2023/10/28 07:07:34;;;;;;;5.43;2.30;;;9.70;99.90;;;;;;5078231;28;20198;-82
2023/10/28 07:10:01;;;;;;;3.30;2.37;;;9.70;99.90;;;;;;5074045;28;20224;-82
2023/10/28 07:12:28;;;;;;;4.40;2.33;;;9.80;99.90;;;;;;5078980;28;20229;-81
2023/10/28 07:14:56;;;;;;;4.77;2.50;;;9.70;99.90;;;;;;5070558;28;20225;-82
2023/10/28 07:17:23;;;;;;;5.53;2.50;;;9.70;99.90;;;;;;5073262;28;20217;-81
2023/10/28 07:19:50;;;;;;;5.33;2.50;;;9.80;99.90;;;;;;5072495;28;20583;-82
2023/10/28 07:22:19;;;;;;;3.97;2.50;;;9.80;99.90;;;;;;5070067;28;20231;-81
2023/10/28 07:24:48;;;;;;;5.00;2.90;;;9.80;99.90;;;;;;5073060;28;20635;-82
2023/10/28 07:27:15;;;;;;;4.67;2.57;;;9.90;99.90;;;;;;5076803;28;20202;-81
2023/10/28 07:29:41;;;;;;;5.57;2.80;;;9.90;99.90;;;;;;5072647;28;20726;-80
2023/10/28 07:32:09;;;;;;;5.43;2.40;;;9.90;99.90;;;;;;5079780;28;20316;-80
2023/10/28 07:34:36;;;;;;;3.97;2.67;;;9.90;99.90;;;;;;5072406;28;20263;-81
2023/10/28 07:37:04;;;;;;;6.30;3.67;;;9.90;99.90;;;;;;5073030;28;20203;-81
2023/10/28 07:39:31;;;;;;;3.67;2.43;;;9.90;99.90;;;;;;5081212;28;20203;-80
2023/10/28 07:41:59;;;;;;;3.10;2.27;;;9.90;99.90;;;;;;5072853;28;20219;-80
2023/10/28 07:44:26;;;;;;;6.97;2.57;;;10.00;99.90;;;;;;5076213;28;20224;-81
2023/10/28 07:46:53;;;;;;;3.30;2.43;;;10.10;99.90;;;;;;5078934;28;20565;-80
2023/10/28 07:49:20;;;;;;;5.40;2.60;;;10.10;99.90;;;;;;5076177;28;20218;-82
2023/10/28 07:51:47;;;;;;;3.67;2.40;;;10.00;99.90;;;;;;5078471;28;20648;-82
2023/10/28 07:54:14;;;;;;;6.40;2.27;;;10.10;99.90;;;;;;5077372;28;20289;-80
2023/10/28 07:56:42;;;;;;;2.27;2.00;;;10.30;99.90;;;;;;5075476;28;20263;-80
2023/10/28 07:59:10;;;;;;;2.37;1.90;;;10.10;99.90;;;;;;5075867;28;20210;-80
2023/10/28 08:01:39;;;;;;;4.00;2.80;;;10.10;99.90;;;;;;5077136;28;20846;-80
2023/10/28 08:04:07;;;;;;;35.20;23.73;;;10.20;99.90;;;;;;5076010;28;20206;-81
2023/10/28 08:06:34;;;;;;;4.33;2.37;;;10.20;99.90;;;;;;5079993;28;20289;-80
2023/10/28 08:09:04;;;;;;;3.17;2.30;;;10.10;99.90;;;;;;5072191;28;20685;-81
2023/10/28 08:11:31;;;;;;;4.63;2.40;;;10.20;99.90;;;;;;5077900;28;20233;-80
2023/10/28 08:13:59;;;;;;;3.93;2.13;;;10.20;99.90;;;;;;5078754;28;20225;-81
2023/10/28 08:16:27;;;;;;;4.83;2.73;;;10.20;99.90;;;;;;5075221;28;20585;-81
2023/10/28 08:18:54;;;;;;;2.40;2.20;;;10.30;99.90;;;;;;5077877;28;20234;-81
2023/10/28 08:21:21;;;;;;;5.17;2.83;;;10.30;99.90;;;;;;5078671;28;20218;-81
2023/10/28 08:23:49;;;;;;;15.70;9.27;;;10.30;99.90;;;;;;5076941;28;20293;-81
2023/10/28 08:26:18;;;;;;;17.93;10.77;;;10.30;99.90;;;;;;5075438;28;20230;-80
2023/10/28 08:28:46;;;;;;;11.83;8.17;;;10.30;99.90;;;;;;5077678;28;20233;-82
2023/10/28 08:31:13;;;;;;;6.83;2.80;;;10.40;99.90;;;;;;5075645;28;20693;-82
2023/10/28 08:33:42;;;;;;;4.07;2.60;;;10.30;99.90;;;;;;5075961;28;20206;-81
2023/10/28 08:36:10;;;;;;;3.50;2.63;;;10.30;99.90;;;;;;5076751;28;20210;-82
2023/10/28 08:38:37;;;;;;;3.97;2.70;;;10.40;99.90;;;;;;5075191;28;20289;-82
2023/10/28 08:41:05;;;;;;;2.97;2.10;;;10.60;99.90;;;;;;5071677;28;20226;-82
2023/10/28 08:43:34;;;;;;;4.23;2.70;;;10.60;99.90;;;;;;5074993;28;20670;-81
2023/10/28 08:46:04;;;;;;;3.47;2.40;;;10.70;99.90;;;;;;5075505;28;20199;-81
2023/10/28 08:48:32;;;;;;;3.50;2.50;;;10.80;99.90;;;;;;5075513;28;20222;-81
2023/10/28 08:51:01;;;;;;;5.57;2.60;;;10.90;99.90;;;;;;5076658;28;20222;-81
2023/10/28 08:53:28;;;;;;;4.00;2.43;;;10.90;99.90;;;;;;5074283;28;20233;-80
2023/10/28 08:56:00;;;;;;;2.87;2.53;;;10.90;99.90;;;;;;5075246;28;20214;-81
2023/10/28 08:58:28;;;;;;;4.77;2.20;;;10.90;99.90;;;;;;5069657;28;20213;-81
2023/10/28 09:00:59;;;;;;;2.20;2.00;;;11.00;99.90;;;;;;5078984;28;20595;-80
2023/10/28 09:03:27;;;;;;;2.37;2.07;;;11.10;99.90;;;;;;5077992;28;20693;-81
2023/10/28 09:05:54;;;;;;;4.23;2.27;;;11.10;99.90;;;;;;5076310;28;20222;-80
2023/10/28 09:08:24;;;;;;;2.47;1.73;;;11.20;99.90;;;;;;5080555;28;20216;-80
2023/10/28 09:10:51;;;;;;;3.07;1.90;;;11.20;99.90;;;;;;5075825;28;20604;-81
2023/10/28 09:13:18;;;;;;;3.23;2.20;;;11.20;99.90;;;;;;5086949;28;20206;-81
2023/10/28 09:15:46;;;;;;;2.20;2.00;;;11.20;99.90;;;;;;5078506;28;20579;-81
2023/10/28 09:18:13;;;;;;;2.43;1.80;;;11.20;99.90;;;;;;5076489;28;20206;-80
2023/10/28 09:20:41;;;;;;;3.20;1.57;;;11.30;99.90;;;;;;5075388;28;20248;-83
2023/10/28 09:23:08;;;;;;;2.57;2.33;;;11.40;99.90;;;;;;5066170;28;20233;-82
2023/10/28 09:25:37;;;;;;;5.33;3.90;;;11.50;99.90;;;;;;5082137;28;20213;-82
2023/10/28 09:28:07;;;;;;;5.30;4.20;;;11.60;99.90;;;;;;5082162;28;20206;-81
2023/10/28 09:30:45;;;;;;;3.73;2.23;;;11.60;99.90;;;;;;5078487;28;20720;-83
2023/10/28 09:33:12;;;;;;;2.00;1.83;;;11.70;99.90;;;;;;5076401;28;20649;-82
2023/10/28 09:35:41;;;;;;;3.63;2.40;;;11.80;99.90;;;;;;5076523;28;20213;-82
2023/10/28 09:38:09;;;;;;;2.70;2.20;;;11.80;99.90;;;;;;5076301;28;20219;-81
2023/10/28 09:40:37;;;;;;;2.43;2.23;;;11.80;99.90;;;;;;5084238;28;20210;-81
2023/10/28 09:43:04;;;;;;;2.73;2.20;;;12.00;99.90;;;;;;5076408;28;20206;-82
2023/10/28 09:45:32;;;;;;;5.93;2.60;;;12.00;99.90;;;;;;5076597;28;20255;-81
2023/10/28 09:48:01;;;;;;;4.40;2.60;;;12.20;99.90;;;;;;5074375;28;20220;-82
2023/10/28 09:50:30;;;;;;;2.30;2.10;;;12.20;99.90;;;;;;5074302;28;20238;-81
2023/10/28 09:52:58;;;;;;;2.27;2.00;;;12.10;99.90;;;;;;5073509;28;20214;-81
2023/10/28 09:55:28;;;;;;;2.80;2.47;;;12.20;99.90;;;;;;5073832;28;20392;-82
2023/10/28 09:58:03;;;;;;;3.20;2.10;;;12.40;99.90;;;;;;5073579;28;20236;-82
2023/10/28 10:00:32;;;;;;;2.33;2.03;;;12.40;99.90;;;;;;5079872;28;20742;-82
2023/10/28 10:03:08;;;;;;;4.23;2.00;;;12.40;99.90;;;;;;5077191;28;20215;-81
2023/10/28 10:05:40;;;;;;;3.43;2.57;;;12.40;99.90;;;;;;5076798;28;20221;-82
2023/10/28 10:08:18;;;;;;;3.33;2.70;;;12.50;99.90;;;;;;5093256;28;20198;-83
2023/10/28 10:10:46;;;;;;;4.70;2.40;;;12.60;99.90;;;;;;5076562;28;20283;-82
2023/10/28 10:13:16;;;;;;;3.10;2.47;;;12.90;99.90;;;;;;5081909;28;20194;-82
2023/10/28 10:15:48;;;;;;;2.30;2.10;;;13.00;99.90;;;;;;5073584;28;20599;-82
2023/10/28 10:18:22;;;;;;;4.40;2.30;;;13.00;99.90;;;;;;5071720;28;20205;-83
2023/10/28 10:20:52;;;;;;;3.13;1.70;;;13.10;99.90;;;;;;5077373;28;20309;-81
2023/10/28 10:23:20;;;;;;;2.47;1.87;;;12.80;99.90;;;;;;5085333;28;20194;-83
2023/10/28 10:25:49;;;;;;;1.67;1.33;;;13.00;99.90;;;;;;5079478;28;20770;-83
2023/10/28 10:28:20;;;;;;;1.00;1.00;;;12.90;99.90;;;;;;5075428;28;20233;-82
2023/10/28 10:30:48;;;;;;;3.30;1.58;;;12.90;99.90;;;;;;5073504;28;20226;-82
2023/10/28 10:33:25;;;;;;;2.20;1.70;;;12.90;99.90;;;;;;5069503;28;20210;-82
2023/10/28 10:35:52;;;;;;;1.97;1.73;;;12.90;99.90;;;;;;5069660;28;20220;-82
2023/10/28 10:38:29;;;;;;;3.80;1.40;;;13.00;99.90;;;;;;5070233;28;20199;-82
2023/10/28 10:40:59;;;;;;;4.20;1.83;;;13.00;99.90;;;;;;5068206;28;20297;-82
2023/10/28 10:43:32;;;;;;;2.03;1.73;;;13.20;99.90;;;;;;5077291;28;20823;-81
2023/10/28 10:45:59;;;;;;;1.85;1.50;;;13.30;99.90;;;;;;5071989;28;20202;-81
2023/10/28 10:48:26;;;;;;;3.47;1.40;;;13.50;66.50;;;;;;5072976;28;20589;-82
2023/10/28 10:50:55;;;;;;;1.42;1.15;;;13.80;1.00;;;;;;5078816;28;20636;-82
2023/10/28 10:53:22;;;;;;;3.33;1.02;;;14.30;1.00;;;;;;5069916;28;20630;-81
2023/10/28 10:55:49;;;;;;;1.05;0.95;;;14.70;99.90;;;;;;5069527;28;20672;-81
2023/10/28 10:58:16;;;;;;;2.60;1.08;;;14.60;1.00;;;;;;5070805;28;20216;-81
2023/10/28 11:00:52;;;;;;;1.52;1.00;;;14.40;99.90;;;;;;5066843;28;20225;-82
2023/10/28 11:03:19;;;;;;;1.50;1.20;;;14.20;1.00;;;;;;5074553;28;20569;-81
2023/10/28 11:05:46;;;;;;;1.52;1.35;;;13.90;1.00;;;;;;5084710;28;20232;-82
2023/10/28 11:08:14;;;;;;;0.77;0.77;;;13.60;97.20;;;;;;5072925;28;20524;-82
2023/10/28 11:10:43;;;;;;;1.63;0.75;;;13.50;1.00;;;;;;5077314;28;20257;-83
2023/10/28 11:13:10;;;;;;;1.15;0.70;;;13.70;99.90;;;;;;5079079;28;20206;-83
2023/10/28 11:15:37;;;;;;;2.20;1.10;;;13.60;99.90;;;;;;5075737;28;20214;-82
2023/10/28 11:18:07;;;;;;;1.13;0.87;;;13.50;1.00;;;;;;5077339;28;20213;-82
2023/10/28 11:20:34;;;;;;;1.30;0.90;;;13.80;16.00;;;;;;5056713;28;20207;-81
2023/10/28 11:23:02;;;;;;;0.87;0.67;;;14.10;99.90;;;;;;5056577;28;20227;-81
2023/10/28 11:25:32;;;;;;;2.60;1.05;;;14.30;1.00;;;;;;5061420;28;20872;-78
2023/10/28 11:28:05;;;;;;;0.80;0.68;;;14.50;99.90;;;;;;5072678;28;20211;-81
2023/10/28 11:30:32;;;;;;;1.55;0.80;;;14.40;99.90;;;;;;5071445;28;20313;-81
2023/10/28 11:32:59;;;;;;;0.98;0.77;;;14.50;99.90;;;;;;5071866;28;20748;-80
2023/10/28 11:35:29;;;;;;;0.75;0.70;;;14.60;1.00;;;;;;5071492;28;20670;-80
2023/10/28 11:37:57;;;;;;;1.25;0.55;;;14.40;1.00;;;;;;5071485;28;20808;-80
2023/10/28 11:40:23;;;;;;;0.80;0.80;;;14.30;42.60;;;;;;5071976;28;20285;-80
2023/10/28 11:42:52;;;;;;;0.85;0.70;;;14.20;1.00;;;;;;5072102;28;20210;-80
2023/10/28 11:45:19;;;;;;;0.90;0.60;;;14.20;1.00;;;;;;5072541;28;20198;-82
2023/10/28 11:47:46;;;;;;;1.30;0.70;;;14.10;1.00;;;;;;5071352;28;20584;-82
2023/10/28 11:50:13;;;;;;;1.85;1.42;;;13.90;1.00;;;;;;5072454;28;20220;-82
2023/10/28 11:52:43;;;;;;;2.10;0.80;;;13.90;1.00;;;;;;5074036;28;20643;-82
2023/10/28 11:55:10;;;;;;;1.13;0.80;;;13.90;9.20;;;;;;5071870;28;20218;-85
2023/10/28 11:57:37;;;;;;;0.95;0.70;;;13.80;1.00;;;;;;5071855;28;20236;-80
2023/10/28 12:00:05;;;;;;;0.70;0.70;;;13.80;1.00;;;;;;5070661;28;20305;-81
2023/10/28 12:02:32;;;;;;;0.90;0.70;;;13.70;1.00;;;;;;5068579;28;20225;-83
2023/10/28 12:04:59;;;;;;;1.08;0.70;;;13.50;1.00;;;;;;5068494;28;20202;-80
2023/10/28 12:07:26;;;;;;;0.55;0.55;;;13.30;1.00;;;;;;5070900;28;20631;-79
2023/10/28 12:09:53;;;;;;;0.50;0.50;;;13.20;1.00;;;;;;5079351;28;20320;-80
2023/10/28 12:12:20;;;;;;;2.22;0.77;;;13.10;1.00;;;;;;5071118;28;20226;-80
2023/10/28 12:14:47;;;;;;;1.90;1.17;;;12.90;9.30;;;;;;5070685;28;20743;-81
2023/10/28 12:17:14;;;;;;;0.47;0.47;;;12.80;24.80;;;;;;5065926;28;20238;-82
2023/10/28 12:19:41;;;;;;;0.40;0.40;;;12.70;99.90;;;;;;5074707;28;20202;-81
2023/10/28 12:22:08;;;;;;;1.03;0.50;;;12.70;99.90;;;;;;5073883;28;20226;-80
2023/10/28 12:24:35;;;;;;;1.67;0.73;;;13.10;99.90;;;;;;5074564;28;20206;-80
2023/10/28 12:27:04;;;;;;;3.03;0.60;;;13.30;99.90;;;;;;5083080;28;20201;-81
2023/10/28 12:29:30;;;;;;;0.68;0.50;;;13.10;99.90;;;;;;5093915;28;20678;-82
2023/10/28 12:31:59;;;;;;;0.60;0.30;;;13.30;99.90;;;;;;5094138;28;20225;-81
2023/10/28 12:34:26;;;;;;;0.60;0.50;;;13.30;99.90;;;;;;5093871;28;20197;-82
2023/10/28 12:36:53;;;;;;;0.85;0.60;;;13.30;99.90;;;;;;5085595;28;20665;-81
2023/10/28 12:39:20;;;;;;;0.88;0.63;;;13.20;99.90;;;;;;5090426;28;20274;-82
2023/10/28 12:41:47;;;;;;;1.63;0.57;;;13.10;99.90;;;;;;5073913;28;20228;-81
2023/10/28 12:44:15;;;;;;;0.93;0.50;;;13.00;99.90;;;;;;5076319;28;20206;-81
2023/10/28 12:46:42;;;;;;;2.93;0.80;;;13.10;99.90;;;;;;5072562;28;20234;-83
2023/10/28 12:49:09;;;;;;;0.60;0.60;;;13.10;99.90;;;;;;5071383;28;20209;-82
2023/10/28 12:51:36;;;;;;;0.93;0.70;;;13.10;99.90;;;;;;5067347;28;20218;-82
2023/10/28 12:54:05;;;;;;;1.27;0.83;;;13.10;99.90;;;;;;5072774;28;20297;-81